Time;durP1;ratioP1;P1;durP2;ratioP2;P2;SDS_P1;SDS_P2;PMS_P1;PMS_P2;Temp;Humidity;BMP_temperature;BMP_pressure;BME280_temperature;BME280_humidity;BME280_pressure;Samples;Min_cycle;Max_cycle;Signal;HPM_P1;HPM_P2
2022/08/04 00:01:48;;;;;;;3.92;1.90;;;19.30;99.90;;;;;;4996436;28;20404;-80
2022/08/04 00:04:28;;;;;;;0.38;0.38;;;19.20;99.90;;;;;;4987598;28;20195;-81
2022/08/04 00:07:39;;;;;;;0.77;0.25;;;19.10;99.90;;;;;;4990918;28;20046;-81
2022/08/04 00:10:07;;;;;;;0.43;0.32;;;19.00;99.90;;;;;;4983564;28;20564;-81
2022/08/04 00:12:36;;;;;;;0.20;0.20;;;19.00;99.90;;;;;;5001025;28;20046;-81
2022/08/04 00:15:04;;;;;;;1.08;0.88;;;18.90;99.90;;;;;;5005164;28;20513;-81
2022/08/04 00:17:57;;;;;;;0.25;0.25;;;18.80;99.90;;;;;;5000293;28;20022;-81
2022/08/04 00:20:27;;;;;;;0.52;0.52;;;18.80;99.90;;;;;;4985289;28;20089;-81
2022/08/04 00:22:53;;;;;;;2.30;0.55;;;18.70;99.90;;;;;;4989387;28;20039;-81
2022/08/04 00:25:19;;;;;;;0.28;0.28;;;18.60;99.90;;;;;;4995237;28;20093;-81
2022/08/04 00:27:45;;;;;;;3.30;0.65;;;18.60;99.90;;;;;;4987472;28;20098;-81
2022/08/04 00:30:11;;;;;;;1.23;0.75;;;18.50;99.90;;;;;;4995295;28;20058;-81
2022/08/04 00:32:39;;;;;;;0.00;0.00;;;18.50;99.90;;;;;;5008404;28;20038;-81
2022/08/04 00:35:08;;;;;;;0.17;0.17;;;18.50;99.90;;;;;;5008280;28;20113;-82
2022/08/04 00:37:35;;;;;;;0.50;0.47;;;18.50;99.90;;;;;;5005913;28;20057;-81
2022/08/04 00:40:09;;;;;;;1.10;1.00;;;18.40;99.90;;;;;;5000241;28;20406;-81
2022/08/04 00:42:45;;;;;;;2.55;1.42;;;18.40;99.90;;;;;;4988144;28;20058;-81
2022/08/04 00:45:27;;;;;;;0.28;0.28;;;18.40;99.90;;;;;;4988731;28;20070;-81
2022/08/04 00:48:21;;;;;;;0.00;0.00;;;18.30;99.90;;;;;;4989031;28;20057;-81
2022/08/04 00:51:13;;;;;;;0.65;0.28;;;18.20;99.90;;;;;;4986443;28;20062;-81
2022/08/04 00:54:21;;;;;;;1.75;1.33;;;18.10;99.90;;;;;;5006600;28;20426;-80
2022/08/04 00:56:49;;;;;;;;;;;18.00;99.90;;;;;;5001319;28;20077;-80
2022/08/04 00:59:30;;;;;;;1.23;0.32;;;18.00;99.90;;;;;;5004294;28;19930;-80
2022/08/04 01:02:05;;;;;;;0.10;0.10;;;17.80;99.90;;;;;;4987943;28;20045;-81
2022/08/04 01:04:48;;;;;;;0.68;0.32;;;17.80;99.90;;;;;;4988167;28;20054;-80
2022/08/04 01:07:52;;;;;;;9.48;1.80;;;17.80;99.90;;;;;;4993381;28;20401;-81
2022/08/04 01:10:36;;;;;;;0.43;0.32;;;17.60;99.90;;;;;;4975130;28;20437;-80
2022/08/04 01:13:25;;;;;;;1.27;0.65;;;17.50;99.90;;;;;;5008384;28;20046;-80
2022/08/04 01:16:01;;;;;;;1.60;0.57;;;17.70;99.90;;;;;;5007795;28;20053;-80
2022/08/04 01:18:38;;;;;;;0.80;0.55;;;17.30;99.90;;;;;;5009025;28;20058;-81
2022/08/04 01:21:08;;;;;;;0.00;0.00;;;17.20;99.90;;;;;;4993901;28;20129;-80
2022/08/04 01:24:01;;;;;;;1.35;0.90;;;17.20;99.90;;;;;;4990249;28;20031;-80
2022/08/04 01:26:53;;;;;;;1.35;1.05;;;17.20;99.90;;;;;;4990091;28;20042;-80
2022/08/04 01:29:22;;;;;;;1.67;1.25;;;17.10;99.90;;;;;;4989630;28;20047;-81
2022/08/04 01:31:51;;;;;;;0.35;0.17;;;17.10;99.90;;;;;;4988686;28;20043;-81
2022/08/04 01:34:20;;;;;;;0.38;0.35;;;17.00;99.90;;;;;;4987386;28;20051;-81
2022/08/04 01:36:59;;;;;;;0.32;0.30;;;17.00;99.90;;;;;;4987372;28;20061;-81
2022/08/04 01:39:41;;;;;;;1.02;0.68;;;16.90;99.90;;;;;;4989284;28;20505;-81
2022/08/04 01:42:09;;;;;;;0.38;0.38;;;16.90;99.90;;;;;;4998409;28;20046;-81
2022/08/04 01:44:38;;;;;;;0.65;0.50;;;17.00;99.90;;;;;;5004762;28;20585;-81
2022/08/04 01:47:04;;;;;;;0.15;0.15;;;17.20;99.90;;;;;;5005079;28;20484;-81
2022/08/04 01:49:32;;;;;;;0.15;0.15;;;17.30;99.90;;;;;;5000632;28;20034;-81
2022/08/04 01:51:58;;;;;;;0.10;0.08;;;17.30;99.90;;;;;;4986146;28;20065;-81
2022/08/04 01:54:25;;;;;;;0.22;0.17;;;17.40;99.90;;;;;;4985564;28;20058;-81
2022/08/04 01:56:54;;;;;;;0.20;0.20;;;17.30;99.90;;;;;;5051009;23;20050;-91
2022/08/04 01:59:21;;;;;;;0.43;0.38;;;17.60;99.90;;;;;;5013438;28;20088;-92
2022/08/04 02:01:47;;;;;;;0.05;0.05;;;17.30;99.90;;;;;;5013128;28;20037;-91
2022/08/04 02:04:21;;;;;;;0.00;0.00;;;17.30;99.90;;;;;;5031291;28;20050;-91
2022/08/04 02:07:01;;;;;;;0.47;0.38;;;18.30;99.90;;;;;;5034185;28;20049;-92
2022/08/04 02:09:46;;;;;;;0.50;0.38;;;17.20;99.90;;;;;;5033511;28;20049;-91
2022/08/04 02:12:30;;;;;;;0.55;0.32;;;17.20;99.90;;;;;;5032812;28;20045;-91
2022/08/04 02:15:06;;;;;;;0.50;0.50;;;17.10;99.90;;;;;;5015786;28;20052;-92
2022/08/04 02:17:48;;;;;;;0.15;0.15;;;16.90;99.90;;;;;;5015712;28;20070;-92
2022/08/04 02:20:37;;;;;;;0.55;0.47;;;16.70;99.90;;;;;;5033487;28;20130;-91
2022/08/04 02:23:04;;;;;;;0.85;0.57;;;16.60;99.90;;;;;;5032907;28;20045;-92
2022/08/04 02:25:37;;;;;;;0.10;0.10;;;16.70;99.90;;;;;;5015798;28;20034;-91
2022/08/04 02:28:16;;;;;;;1.90;0.90;;;16.70;99.90;;;;;;5016214;28;20046;-92
2022/08/04 02:31:15;;;;;;;0.05;0.05;;;16.70;99.90;;;;;;5032194;28;20065;-91
2022/08/04 02:33:45;;;;;;;1.33;0.98;;;16.70;99.90;;;;;;5031570;28;20042;-92
2022/08/04 02:36:30;;;;;;;1.15;1.05;;;16.60;99.90;;;;;;5031605;28;20068;-92
2022/08/04 02:38:59;;;;;;;0.65;0.63;;;16.70;99.90;;;;;;5015600;28;20061;-91
2022/08/04 02:41:27;;;;;;;1.25;0.85;;;16.70;99.90;;;;;;5036778;28;20030;-91
2022/08/04 02:43:59;;;;;;;0.15;0.13;;;16.70;99.90;;;;;;5037010;28;20045;-91
2022/08/04 02:46:26;;;;;;;0.40;0.40;;;16.70;99.90;;;;;;5034408;28;20046;-93
2022/08/04 02:48:53;;;;;;;0.70;0.13;;;16.60;99.90;;;;;;5034166;28;20097;-91
2022/08/04 02:51:26;;;;;;;1.10;0.82;;;17.10;99.90;;;;;;5018044;28;20058;-92
2022/08/04 02:53:55;;;;;;;2.05;0.63;;;17.50;99.90;;;;;;5017835;28;20051;-92
2022/08/04 02:56:23;;;;;;;2.45;0.95;;;17.00;99.90;;;;;;5034380;28;20029;-91
2022/08/04 02:58:55;;;;;;;3.25;0.80;;;16.50;99.90;;;;;;5035599;28;20074;-92
2022/08/04 03:01:21;;;;;;;0.13;0.13;;;16.50;99.90;;;;;;5034949;28;20030;-92
2022/08/04 03:04:05;;;;;;;0.20;0.20;;;16.40;99.90;;;;;;5036417;28;20090;-91
2022/08/04 03:06:45;;;;;;;5.68;0.95;;;16.40;99.90;;;;;;5034999;28;20038;-91
2022/08/04 03:09:26;;;;;;;0.77;0.52;;;16.30;99.90;;;;;;5035620;28;20045;-91
2022/08/04 03:12:25;;;;;;;0.60;0.60;;;16.30;99.90;;;;;;5036138;28;20049;-92
2022/08/04 03:15:12;;;;;;;3.05;0.90;;;16.30;99.90;;;;;;5036229;28;20045;-91
2022/08/04 03:18:03;;;;;;;2.35;1.00;;;16.40;99.90;;;;;;5035696;28;20065;-91
2022/08/04 03:20:41;;;;;;;1.67;1.08;;;16.30;99.90;;;;;;5038478;28;20033;-91
2022/08/04 03:23:38;;;;;;;0.45;0.45;;;16.60;99.90;;;;;;5039485;28;20030;-92
2022/08/04 03:26:18;;;;;;;0.30;0.15;;;16.30;99.90;;;;;;5038312;28;20077;-92
2022/08/04 03:29:19;;;;;;;0.88;0.55;;;17.00;99.90;;;;;;5008949;28;20034;-92
2022/08/04 03:32:03;;;;;;;0.40;0.40;;;16.30;99.90;;;;;;5019861;28;20057;-91
2022/08/04 03:34:57;;;;;;;0.10;0.10;;;16.30;99.90;;;;;;5019323;28;20038;-91
2022/08/04 03:37:44;;;;;;;2.30;0.70;;;16.20;99.90;;;;;;5020741;28;20058;-92
2022/08/04 03:40:16;;;;;;;0.95;0.45;;;16.20;99.90;;;;;;5019620;28;20038;-91
2022/08/04 03:43:20;;;;;;;0.47;0.20;;;16.20;99.90;;;;;;5020306;28;20057;-91
2022/08/04 03:46:41;;;;;;;0.00;0.00;;;16.20;99.90;;;;;;5020051;28;20030;-91
2022/08/04 03:49:17;;;;;;;0.73;0.65;;;16.10;99.90;;;;;;5016361;28;20050;-91
2022/08/04 03:55:05;;;;;;;1.33;0.98;;;16.20;99.90;;;;;;5003186;28;20062;-91
2022/08/04 03:57:50;;;;;;;0.22;0.20;;;16.10;99.90;;;;;;5017428;28;20038;-91
2022/08/04 04:00:21;;;;;;;0.50;0.40;;;16.10;99.90;;;;;;5022808;28;20064;-91
2022/08/04 04:03:25;;;;;;;1.00;0.60;;;16.10;99.90;;;;;;5022078;28;20065;-92
2022/08/04 04:05:59;;;;;;;2.38;0.85;;;16.20;99.90;;;;;;5017943;28;20026;-91
2022/08/04 04:08:52;;;;;;;0.43;0.43;;;16.20;99.90;;;;;;5016494;28;20047;-91
2022/08/04 04:11:55;;;;;;;1.30;1.05;;;16.30;99.90;;;;;;5016906;28;20081;-91
2022/08/04 04:14:40;;;;;;;0.10;0.10;;;16.30;99.90;;;;;;5016658;28;20043;-91
2022/08/04 04:17:20;;;;;;;0.52;0.40;;;16.40;99.90;;;;;;5017339;28;20026;-91
2022/08/04 04:20:13;;;;;;;0.77;0.68;;;17.20;99.90;;;;;;5017739;28;20049;-91
2022/08/04 04:23:16;;;;;;;0.68;0.52;;;16.60;99.90;;;;;;5016885;28;20063;-91
2022/08/04 04:25:56;;;;;;;0.40;0.40;;;16.60;99.90;;;;;;5000901;28;20085;-91
2022/08/04 04:28:34;;;;;;;0.10;0.10;;;16.60;99.90;;;;;;5018690;28;20125;-91
2022/08/04 04:31:21;;;;;;;1.65;0.98;;;16.70;99.90;;;;;;5001598;28;20050;-91
2022/08/04 04:34:05;;;;;;;0.32;0.28;;;16.70;99.90;;;;;;5016954;28;20026;-91
2022/08/04 04:36:52;;;;;;;2.33;1.55;;;16.80;99.90;;;;;;5018041;28;20042;-91
2022/08/04 04:39:54;;;;;;;3.50;1.48;;;16.90;99.90;;;;;;5035055;28;20022;-91
2022/08/04 04:42:41;;;;;;;0.30;0.20;;;17.00;99.90;;;;;;5038604;28;20022;-91
2022/08/04 04:45:44;;;;;;;3.60;1.58;;;17.10;99.90;;;;;;5037590;28;20045;-91
2022/08/04 04:48:37;;;;;;;0.45;0.40;;;17.20;99.90;;;;;;5020398;28;20042;-92
2022/08/04 04:51:27;;;;;;;0.57;0.57;;;17.30;99.90;;;;;;5017571;28;20093;-90
2022/08/04 04:54:05;;;;;;;0.52;0.40;;;17.40;99.90;;;;;;5020450;28;20041;-91
2022/08/04 04:56:41;;;;;;;0.20;0.20;;;17.40;99.90;;;;;;5018471;28;20058;-90
2022/08/04 04:59:11;;;;;;;0.38;0.20;;;17.50;99.90;;;;;;5019336;28;20385;-90
2022/08/04 05:01:52;;;;;;;0.10;0.10;;;18.00;99.90;;;;;;5019126;28;20101;-90
2022/08/04 05:04:55;;;;;;;1.83;0.82;;;17.70;99.90;;;;;;5019475;28;20030;-90
2022/08/04 05:08:03;;;;;;;1.75;0.95;;;17.80;99.90;;;;;;5018967;28;20030;-91
2022/08/04 05:10:55;;;;;;;0.10;0.10;;;17.90;99.90;;;;;;5018515;28;20038;-92
2022/08/04 05:13:46;;;;;;;0.70;0.30;;;18.10;99.90;;;;;;5018338;28;20026;-91
2022/08/04 05:16:24;;;;;;;0.08;0.08;;;18.20;99.90;;;;;;4998880;28;20031;-92
2022/08/04 05:19:05;;;;;;;0.47;0.38;;;18.30;99.90;;;;;;5001244;28;20030;-92
2022/08/04 05:22:06;;;;;;;0.28;0.20;;;18.50;99.90;;;;;;4999054;28;20382;-92
2022/08/04 05:24:36;;;;;;;0.13;0.08;;;18.70;99.90;;;;;;4995737;28;20234;-88
2022/08/04 05:27:10;;;;;;;1.08;0.82;;;19.30;99.90;;;;;;4984127;28;20054;-87
2022/08/04 05:29:44;;;;;;;0.40;0.35;;;19.80;99.90;;;;;;5021725;28;20125;-87
2022/08/04 05:32:13;;;;;;;0.00;0.00;;;19.30;99.90;;;;;;5020086;28;20073;-87
2022/08/04 05:34:50;;;;;;;0.52;0.40;;;19.60;99.90;;;;;;5015030;28;20048;-87
2022/08/04 05:37:18;;;;;;;1.85;0.93;;;19.70;99.90;;;;;;5015530;28;20045;-86
2022/08/04 05:39:53;;;;;;;0.47;0.35;;;19.80;99.90;;;;;;5014820;28;20057;-87
2022/08/04 05:42:20;;;;;;;0.00;0.00;;;20.00;99.90;;;;;;5013330;28;20389;-87
2022/08/04 05:44:46;;;;;;;0.55;0.45;;;20.10;99.90;;;;;;5013216;28;20042;-87
2022/08/04 05:47:13;;;;;;;0.28;0.25;;;20.20;99.90;;;;;;5012653;28;20373;-86
2022/08/04 05:49:40;;;;;;;5.55;1.85;;;20.30;99.90;;;;;;5011758;28;20064;-85
2022/08/04 05:52:08;;;;;;;0.17;0.03;;;20.50;99.90;;;;;;5012098;28;20425;-86
2022/08/04 05:54:36;;;;;;;0.38;0.38;;;20.80;99.90;;;;;;5012262;28;20492;-86
2022/08/04 05:57:04;;;;;;;0.52;0.32;;;21.60;99.90;;;;;;5031551;28;20148;-86
2022/08/04 05:59:31;;;;;;;1.15;0.40;;;22.40;99.90;;;;;;5031676;28;20103;-84
2022/08/04 06:01:58;;;;;;;0.82;0.75;;;23.00;99.90;;;;;;5031959;28;20052;-86
2022/08/04 06:04:31;;;;;;;2.40;1.83;;;23.60;99.90;;;;;;5032885;28;20046;-86
2022/08/04 06:06:56;;;;;;;1.23;0.75;;;24.30;99.90;;;;;;5031462;28;20064;-86
2022/08/04 06:09:22;;;;;;;2.92;1.42;;;24.70;99.90;;;;;;5031789;28;20361;-86
2022/08/04 06:11:50;;;;;;;0.28;0.28;;;25.00;99.90;;;;;;5031681;28;20484;-86
2022/08/04 06:14:20;;;;;;;0.90;0.65;;;25.20;99.90;;;;;;5031446;28;20085;-86
2022/08/04 06:16:46;;;;;;;0.22;0.22;;;25.70;99.90;;;;;;5027584;28;20064;-86
2022/08/04 06:19:13;;;;;;;0.68;0.57;;;26.20;99.90;;;;;;5012294;28;20050;-86
2022/08/04 06:21:43;;;;;;;0.43;0.20;;;26.60;99.90;;;;;;5009987;28;20485;-86
2022/08/04 06:24:14;;;;;;;0.20;0.20;;;27.10;99.90;;;;;;4995254;28;20157;-86
2022/08/04 06:26:40;;;;;;;0.95;0.50;;;27.60;99.90;;;;;;5013475;28;20472;-87
2022/08/04 06:29:16;;;;;;;3.42;1.55;;;28.20;99.90;;;;;;5012986;28;20038;-86
2022/08/04 06:31:45;;;;;;;0.98;0.63;;;28.30;99.90;;;;;;5013179;28;20049;-83
2022/08/04 06:34:15;;;;;;;1.10;0.70;;;28.70;99.90;;;;;;5013478;28;20517;-85
2022/08/04 06:36:42;;;;;;;1.23;0.80;;;29.40;99.90;;;;;;5018177;28;20050;-84
2022/08/04 06:39:09;;;;;;;0.40;0.25;;;29.40;99.90;;;;;;5034045;28;20048;-85
2022/08/04 06:41:35;;;;;;;0.70;0.38;;;29.70;99.90;;;;;;5037221;28;20124;-85
2022/08/04 06:44:04;;;;;;;0.70;0.55;;;29.80;93.00;;;;;;5036165;28;20042;-84
2022/08/04 06:46:31;;;;;;;0.10;0.10;;;29.70;95.80;;;;;;5033850;28;20056;-85
2022/08/04 06:48:57;;;;;;;0.73;0.50;;;30.00;96.70;;;;;;5032645;28;20049;-83
2022/08/04 06:51:23;;;;;;;0.63;0.45;;;30.10;91.60;;;;;;5035010;28;20056;-88
2022/08/04 06:53:50;;;;;;;1.90;0.63;;;29.70;90.70;;;;;;5025873;28;20052;-86
2022/08/04 06:56:17;;;;;;;1.60;0.82;;;29.50;94.00;;;;;;5004018;28;20060;-85
2022/08/04 06:58:45;;;;;;;1.23;0.95;;;29.70;92.80;;;;;;5016678;28;20076;-86
2022/08/04 07:01:13;;;;;;;0.47;0.28;;;29.50;84.00;;;;;;5032940;28;20176;-86
2022/08/04 07:03:39;;;;;;;0.45;0.30;;;29.10;85.20;;;;;;5032107;28;20100;-86
2022/08/04 07:06:05;;;;;;;2.00;1.17;;;28.80;90.10;;;;;;5036927;28;20034;-86
2022/08/04 07:08:31;;;;;;;0.28;0.28;;;28.70;92.10;;;;;;5035100;28;20053;-86
2022/08/04 07:10:57;;;;;;;1.02;0.52;;;28.90;94.10;;;;;;5037960;28;20060;-86
2022/08/04 07:13:25;;;;;;;0.52;0.45;;;29.20;78.80;;;;;;5039977;28;20030;-86
2022/08/04 07:15:52;;;;;;;1.65;0.47;;;29.40;92.00;;;;;;5033160;28;20186;-85
2022/08/04 07:18:17;;;;;;;1.27;0.60;;;29.70;93.00;;;;;;5024525;28;20038;-85
2022/08/04 07:20:44;;;;;;;0.20;0.13;;;29.70;81.40;;;;;;5031608;28;20064;-86
2022/08/04 07:23:16;;;;;;;1.65;0.47;;;29.60;85.20;;;;;;5031466;28;20069;-85
2022/08/04 07:25:42;;;;;;;0.20;0.20;;;29.60;69.70;;;;;;5028573;28;20752;-85
2022/08/04 07:28:08;;;;;;;0.30;0.20;;;30.10;72.60;;;;;;5026085;28;20049;-85
2022/08/04 07:30:34;;;;;;;0.40;0.40;;;31.10;51.50;;;;;;5029364;28;20046;-85
2022/08/04 07:33:01;;;;;;;0.30;0.20;;;30.50;67.10;;;;;;5029703;28;20366;-85
2022/08/04 07:35:28;;;;;;;0.55;0.35;;;30.70;68.90;;;;;;5027750;28;20147;-85
2022/08/04 07:37:53;;;;;;;0.40;0.20;;;31.30;51.00;;;;;;5023092;28;20053;-86
2022/08/04 07:40:19;;;;;;;2.10;0.52;;;31.70;46.80;;;;;;5010180;28;20096;-86
2022/08/04 07:42:45;;;;;;;0.35;0.13;;;31.90;50.00;;;;;;5007160;28;20038;-85
2022/08/04 07:45:11;;;;;;;3.75;1.10;;;32.50;38.80;;;;;;5034360;28;20060;-86
2022/08/04 07:47:39;;;;;;;0.13;0.13;;;32.80;30.70;;;;;;5025659;28;20413;-86
2022/08/04 07:50:09;;;;;;;2.67;0.63;;;33.10;31.00;;;;;;5010592;28;20046;-86
2022/08/04 07:52:35;;;;;;;0.43;0.28;;;33.30;22.30;;;;;;5013649;28;20050;-87
2022/08/04 07:55:03;;;;;;;0.30;0.30;;;33.60;19.90;;;;;;5015717;28;20042;-85
2022/08/04 07:57:29;;;;;;;0.82;0.75;;;33.80;17.10;;;;;;5020374;28;20065;-86
2022/08/04 07:59:54;;;;;;;1.02;0.15;;;33.70;9.20;;;;;;5010195;28;20050;-86
2022/08/04 08:02:21;;;;;;;2.92;0.85;;;33.60;10.00;;;;;;5028032;28;20057;-86
2022/08/04 08:04:47;;;;;;;1.55;1.05;;;33.60;12.50;;;;;;5025469;28;20064;-86
2022/08/04 08:07:13;;;;;;;0.35;0.30;;;33.60;6.70;;;;;;5022538;28;20054;-83
2022/08/04 08:09:39;;;;;;;1.15;0.77;;;33.30;7.40;;;;;;5019152;28;20381;-86
2022/08/04 08:12:06;;;;;;;3.13;0.85;;;33.30;3.20;;;;;;5006885;28;20054;-86
2022/08/04 08:14:33;;;;;;;0.30;0.22;;;32.90;7.60;;;;;;5002321;28;20089;-84
2022/08/04 08:17:01;;;;;;;0.55;0.43;;;32.20;12.00;;;;;;5002626;28;20084;-83
2022/08/04 08:19:27;;;;;;;0.85;0.38;;;31.70;15.70;;;;;;5003200;28;20068;-83
2022/08/04 08:21:53;;;;;;;0.22;0.22;;;31.70;18.00;;;;;;5023691;28;20405;-84
2022/08/04 08:24:19;;;;;;;2.45;1.25;;;31.70;24.70;;;;;;5011536;28;20054;-84
2022/08/04 08:26:45;;;;;;;0.98;0.65;;;32.20;23.40;;;;;;5001407;28;20569;-83
2022/08/04 08:29:11;;;;;;;1.25;0.52;;;31.80;25.80;;;;;;5004279;28;20054;-84
2022/08/04 08:31:37;;;;;;;0.70;0.55;;;31.60;21.80;;;;;;5018329;28;20038;-84
2022/08/04 08:34:02;;;;;;;0.85;0.43;;;31.70;24.30;;;;;;5003277;28;20078;-84
2022/08/04 08:36:45;;;;;;;0.03;0.03;;;31.90;23.90;;;;;;5008310;28;20069;-84
2022/08/04 08:39:22;;;;;;;0.45;0.30;;;31.90;22.10;;;;;;5009064;28;20050;-84
2022/08/04 08:42:13;;;;;;;0.47;0.40;;;31.90;28.80;;;;;;5005989;28;20054;-85
2022/08/04 08:44:55;;;;;;;0.52;0.47;;;32.20;20.50;;;;;;5010503;28;20049;-84
2022/08/04 08:47:42;;;;;;;0.10;0.10;;;32.30;18.90;;;;;;5017448;28;20049;-87
2022/08/04 08:50:53;;;;;;;0.38;0.25;;;32.20;16.90;;;;;;5023588;28;20085;-84
2022/08/04 08:53:37;;;;;;;0.40;0.30;;;32.80;13.10;;;;;;5024722;28;20042;-84
2022/08/04 08:56:17;;;;;;;7.95;1.10;;;33.30;17.00;;;;;;5019971;28;20022;-84
2022/08/04 08:59:22;;;;;;;0.70;0.60;;;33.60;3.90;;;;;;5032904;28;20034;-84
2022/08/04 09:01:53;;;;;;;0.13;0.10;;;34.30;6.40;;;;;;5004059;28;20047;-91
2022/08/04 09:04:36;;;;;;;1.55;0.55;;;34.70;6.50;;;;;;5016376;28;20122;-90
2022/08/04 09:07:30;;;;;;;5.50;1.20;;;35.10;1.00;;;;;;5017472;28;20034;-90
2022/08/04 09:10:19;;;;;;;2.15;0.30;;;35.50;1.00;;;;;;5027846;28;20034;-90
2022/08/04 09:13:05;;;;;;;0.00;0.00;;;35.90;1.00;;;;;;5020797;28;20062;-90
2022/08/04 09:16:01;;;;;;;1.90;0.63;;;35.50;1.00;;;;;;5037356;28;20029;-90
2022/08/04 09:18:36;;;;;;;0.57;0.25;;;35.20;1.00;;;;;;5036057;28;20046;-90
2022/08/04 09:21:16;;;;;;;0.40;0.22;;;34.50;1.00;;;;;;5035625;28;20029;-89
2022/08/04 09:24:04;;;;;;;2.05;0.77;;;34.20;1.50;;;;;;5038082;28;20030;-90
2022/08/04 09:26:38;;;;;;;0.70;0.30;;;34.10;2.00;;;;;;5011968;28;20037;-89
2022/08/04 09:29:25;;;;;;;0.98;0.52;;;34.50;1.00;;;;;;5018479;28;20042;-88
2022/08/04 09:32:28;;;;;;;0.70;0.52;;;34.80;1.00;;;;;;5022663;28;20057;-89
2022/08/04 09:35:23;;;;;;;0.30;0.30;;;34.70;1.00;;;;;;4987794;28;20046;-91
2022/08/04 09:38:00;;;;;;;0.52;0.40;;;34.10;1.00;;;;;;5000924;28;20096;-89
2022/08/04 09:40:33;;;;;;;2.45;0.52;;;33.50;1.00;;;;;;5001324;28;20053;-88
2022/08/04 09:43:04;;;;;;;0.10;0.10;;;33.10;5.90;;;;;;5018024;28;20026;-89
2022/08/04 09:45:41;;;;;;;0.20;0.10;;;33.00;7.10;;;;;;5000816;28;20050;-90
2022/08/04 09:48:14;;;;;;;0.93;0.63;;;32.80;11.10;;;;;;5020887;28;20025;-89
2022/08/04 09:50:45;;;;;;;0.75;0.38;;;32.60;8.20;;;;;;5023558;28;20026;-89
2022/08/04 09:53:29;;;;;;;0.20;0.13;;;32.50;10.70;;;;;;5029525;28;20030;-90
2022/08/04 09:56:01;;;;;;;1.13;0.60;;;32.30;10.70;;;;;;5037571;28;20057;-90
2022/08/04 09:58:51;;;;;;;0.45;0.40;;;32.20;9.20;;;;;;5036605;28;20088;-91
2022/08/04 10:01:20;;;;;;;3.45;0.73;;;32.10;15.00;;;;;;5025326;28;20034;-89
2022/08/04 10:04:11;;;;;;;0.57;0.45;;;31.70;15.10;;;;;;5035802;28;20060;-88
2022/08/04 10:07:10;;;;;;;25.65;0.63;;;31.40;18.30;;;;;;5035783;28;20065;-89
2022/08/04 10:10:00;;;;;;;0.75;0.57;;;31.40;21.30;;;;;;5037153;28;20048;-89
2022/08/04 10:12:38;;;;;;;2.65;1.08;;;31.10;29.20;;;;;;5037115;28;20064;-89
2022/08/04 10:15:20;;;;;;;0.47;0.47;;;31.40;25.20;;;;;;5035964;28;20057;-89
2022/08/04 10:18:10;;;;;;;1.75;1.25;;;31.60;26.50;;;;;;5035928;28;20029;-88
2022/08/04 10:20:56;;;;;;;1.40;0.68;;;31.60;24.50;;;;;;5036036;28;20022;-89
2022/08/04 10:23:51;;;;;;;3.60;0.95;;;31.80;20.80;;;;;;5017760;28;20045;-88
2022/08/04 10:26:28;;;;;;;1.27;0.73;;;31.80;17.90;;;;;;5032741;28;20052;-89
2022/08/04 10:29:11;;;;;;;4.47;2.05;;;32.20;11.30;;;;;;5012726;28;20034;-89
2022/08/04 10:31:59;;;;;;;0.32;0.17;;;32.10;13.60;;;;;;5016497;28;20031;-88
2022/08/04 10:34:28;;;;;;;0.68;0.30;;;32.70;12.70;;;;;;5015403;28;20034;-89
2022/08/04 10:37:18;;;;;;;0.15;0.15;;;32.80;7.90;;;;;;4999374;28;20053;-89
2022/08/04 10:43:29;;;;;;;0.47;0.30;;;33.50;4.60;;;;;;5053368;28;20060;-89
2022/08/04 10:46:13;;;;;;;1.83;0.85;;;33.30;1.00;;;;;;5054581;28;20056;-89
2022/08/04 10:48:42;;;;;;;0.40;0.30;;;33.30;4.70;;;;;;5053865;28;20094;-90
2022/08/04 10:51:20;;;;;;;1.85;0.95;;;33.00;1.50;;;;;;5053625;28;20303;-89
2022/08/04 10:53:50;;;;;;;0.10;0.10;;;32.60;2.90;;;;;;5052282;28;20051;-90
2022/08/04 10:56:31;;;;;;;0.25;0.20;;;31.90;6.40;;;;;;5054108;28;20056;-90
2022/08/04 10:59:02;;;;;;;0.13;0.10;;;32.40;10.00;;;;;;5055779;28;20025;-90
2022/08/04 11:01:43;;;;;;;0.40;0.15;;;32.40;4.60;;;;;;5037011;28;20042;-90
2022/08/04 11:04:24;;;;;;;0.80;0.80;;;32.20;7.20;;;;;;5014752;28;20039;-91
2022/08/04 11:06:51;;;;;;;0.10;0.10;;;31.90;7.40;;;;;;5015057;28;20031;-91
2022/08/04 11:09:19;;;;;;;0.38;0.22;;;32.10;5.40;;;;;;4998052;28;20061;-90
2022/08/04 11:12:02;;;;;;;2.67;0.75;;;32.10;2.90;;;;;;4998048;28;20030;-91
2022/08/04 11:14:38;;;;;;;0.00;0.00;;;32.00;3.30;;;;;;5010289;28;20081;-90
2022/08/04 11:17:09;;;;;;;1.88;0.88;;;32.40;1.00;;;;;;5007655;28;20532;-91
2022/08/04 11:19:45;;;;;;;0.08;0.08;;;31.50;1.00;;;;;;4989598;28;20053;-91
2022/08/04 11:22:19;;;;;;;4.85;0.55;;;31.20;4.40;;;;;;5008945;28;20117;-91
2022/08/04 11:25:09;;;;;;;0.03;0.03;;;32.10;3.10;;;;;;5012298;28;20039;-91
2022/08/04 11:27:59;;;;;;;0.00;0.00;;;31.70;4.80;;;;;;5014043;28;20026;-90
2022/08/04 11:30:33;;;;;;;0.65;0.22;;;31.30;3.00;;;;;;5016508;28;20038;-91
2022/08/04 11:33:21;;;;;;;0.15;0.10;;;31.20;4.50;;;;;;5011890;28;20130;-91
2022/08/04 11:36:00;;;;;;;0.65;0.28;;;31.10;5.00;;;;;;5011637;28;20030;-90
2022/08/04 11:38:34;;;;;;;0.55;0.40;;;31.00;9.00;;;;;;4996212;28;20110;-91
2022/08/04 11:41:09;;;;;;;0.30;0.20;;;31.00;12.10;;;;;;5010194;28;20057;-91
2022/08/04 11:43:47;;;;;;;0.20;0.15;;;31.20;10.80;;;;;;4998498;28;20038;-91
2022/08/04 11:46:21;;;;;;;0.32;0.13;;;31.30;11.30;;;;;;5015194;28;20082;-91
2022/08/04 11:48:57;;;;;;;4.95;1.30;;;31.30;12.80;;;;;;5015805;28;20512;-91
2022/08/04 11:51:25;;;;;;;0.22;0.22;;;31.60;11.60;;;;;;5016562;28;20041;-91
2022/08/04 11:53:51;;;;;;;1.50;0.70;;;31.70;12.80;;;;;;5015410;28;20031;-91
2022/08/04 11:56:17;;;;;;;3.83;1.35;;;31.00;17.00;;;;;;5017301;28;20566;-91
2022/08/04 11:58:43;;;;;;;0.95;0.30;;;30.80;19.70;;;;;;5001602;28;20085;-91
2022/08/04 12:01:27;;;;;;;0.73;0.47;;;31.10;19.10;;;;;;5013572;28;20030;-90
2022/08/04 12:04:25;;;;;;;1.02;0.55;;;31.00;17.50;;;;;;5010340;28;20094;-91
2022/08/04 12:06:59;;;;;;;0.10;0.10;;;31.20;15.50;;;;;;5008626;28;20053;-91
2022/08/04 12:09:43;;;;;;;1.60;0.57;;;30.90;14.60;;;;;;4994303;28;20034;-91
2022/08/04 12:12:08;;;;;;;1.77;1.00;;;31.00;15.60;;;;;;5011241;28;20281;-91
2022/08/04 12:14:43;;;;;;;0.88;0.35;;;30.80;16.40;;;;;;4991092;28;20053;-92
2022/08/04 12:17:11;;;;;;;0.20;0.20;;;30.40;18.20;;;;;;4994770;28;20465;-92
2022/08/04 12:20:00;;;;;;;0.13;0.10;;;30.10;18.30;;;;;;5012579;28;20102;-92
2022/08/04 12:22:27;;;;;;;0.03;0.03;;;30.10;22.50;;;;;;5013271;28;20074;-91
2022/08/04 12:25:00;;;;;;;0.25;0.25;;;30.70;23.10;;;;;;4997596;28;20053;-92
2022/08/04 12:27:36;;;;;;;0.40;0.20;;;29.70;24.00;;;;;;5013690;28;20039;-91
2022/08/04 12:30:03;;;;;;;0.63;0.57;;;29.60;25.90;;;;;;4996850;28;20046;-92
2022/08/04 12:32:49;;;;;;;0.60;0.30;;;29.60;26.30;;;;;;5012643;28;20050;-91
2022/08/04 12:35:39;;;;;;;0.10;0.10;;;29.30;25.20;;;;;;5014552;28;20044;-91
2022/08/04 12:38:13;;;;;;;0.35;0.30;;;28.90;26.20;;;;;;5016150;28;20073;-91
2022/08/04 12:40:50;;;;;;;0.47;0.38;;;28.60;28.70;;;;;;5011102;28;20041;-91
2022/08/04 12:43:38;;;;;;;0.28;0.22;;;28.40;31.00;;;;;;5013303;28;20045;-91
2022/08/04 12:46:09;;;;;;;0.03;0.03;;;28.20;32.60;;;;;;5010437;28;20038;-92
2022/08/04 12:48:37;;;;;;;0.10;0.00;;;27.90;39.90;;;;;;5010616;28;20397;-92
2022/08/04 12:51:07;;;;;;;0.22;0.22;;;28.20;40.50;;;;;;5011267;28;20042;-91
2022/08/04 12:53:36;;;;;;;0.55;0.40;;;27.60;41.40;;;;;;5014985;28;20034;-91
2022/08/04 12:56:03;;;;;;;0.45;0.40;;;27.50;44.50;;;;;;5012089;28;20038;-91
2022/08/04 12:58:36;;;;;;;0.13;0.10;;;27.50;49.00;;;;;;5013519;28;20050;-91
2022/08/04 13:01:06;;;;;;;0.10;0.10;;;27.00;60.50;;;;;;5006139;28;20121;-91
2022/08/04 13:03:43;;;;;;;0.15;0.10;;;27.00;64.20;;;;;;5007693;28;20202;-92
2022/08/04 13:06:13;;;;;;;0.28;0.20;;;27.20;70.80;;;;;;4994274;28;20041;-92
2022/08/04 13:08:40;;;;;;;0.60;0.30;;;27.60;63.40;;;;;;5012674;28;20043;-93
2022/08/04 13:11:08;;;;;;;0.03;0.03;;;28.20;49.90;;;;;;5012748;28;20038;-93
2022/08/04 13:13:36;;;;;;;0.20;0.13;;;29.00;44.50;;;;;;5014163;28;20482;-92
2022/08/04 13:16:11;;;;;;;0.57;0.32;;;29.50;36.40;;;;;;4997528;28;20065;-93
2022/08/04 13:18:39;;;;;;;0.10;0.00;;;29.50;33.90;;;;;;5013676;28;20094;-92
2022/08/04 13:21:14;;;;;;;0.00;0.00;;;29.70;25.10;;;;;;5017045;28;20046;-93
2022/08/04 13:23:44;;;;;;;9.70;0.45;;;30.50;22.00;;;;;;5016568;28;20042;-93
2022/08/04 13:26:12;;;;;;;0.10;0.10;;;30.90;20.30;;;;;;5015876;28;20066;-93
2022/08/04 13:28:40;;;;;;;0.00;0.00;;;30.50;14.10;;;;;;5012005;28;20026;-92
2022/08/04 13:31:08;;;;;;;0.00;0.00;;;30.40;11.90;;;;;;5010565;28;20042;-90
2022/08/04 13:33:37;;;;;;;0.55;0.35;;;30.70;10.10;;;;;;5000858;28;20050;-91
2022/08/04 13:36:04;;;;;;;0.00;0.00;;;30.50;7.70;;;;;;5000633;28;20073;-90
2022/08/04 13:38:32;;;;;;;0.35;0.20;;;30.90;9.80;;;;;;5006428;28;20050;-93
2022/08/04 13:41:01;;;;;;;4.22;0.70;;;31.00;5.60;;;;;;4995110;28;20046;-90
2022/08/04 13:43:38;;;;;;;0.25;0.20;;;31.40;4.10;;;;;;5017247;28;20038;-92